createdAt,value
2023-02-21T00:01:42.239Z,0.70
2023-02-21T00:04:43.710Z,0.80
2023-02-21T00:07:43.945Z,0.60
2023-02-21T00:10:43.993Z,0.60
2023-02-21T00:13:44.330Z,0.65
2023-02-21T00:16:44.516Z,0.70
2023-02-21T00:19:45.993Z,0.70
2023-02-21T00:22:46.030Z,0.68
2023-02-21T00:25:46.215Z,0.80
2023-02-21T00:28:46.240Z,0.65
2023-02-21T00:31:46.475Z,0.70
2023-02-21T00:34:47.920Z,0.60
2023-02-21T00:37:48.197Z,0.50
2023-02-21T00:40:47.954Z,0.60
2023-02-21T00:43:47.739Z,0.70
2023-02-21T00:46:47.791Z,0.50
2023-02-21T00:49:49.196Z,0.50
2023-02-21T00:52:49.444Z,0.52
2023-02-21T00:55:49.500Z,0.60
2023-02-21T00:58:49.512Z,0.40
2023-02-21T01:01:49.654Z,0.60
2023-02-21T01:04:52.220Z,0.50
2023-02-21T01:07:52.343Z,0.47
2023-02-21T01:10:52.286Z,0.45
2023-02-21T01:13:52.499Z,0.40
2023-02-21T01:16:54.186Z,0.40
2023-02-21T01:19:57.093Z,0.40
2023-02-21T01:22:56.947Z,0.35
2023-02-21T01:25:57.182Z,0.40
2023-02-21T01:28:57.272Z,0.40
2023-02-21T01:31:58.044Z,0.50
2023-02-21T01:34:59.549Z,0.40
2023-02-21T01:37:59.995Z,0.40
2023-02-21T01:41:00.011Z,0.40
2023-02-21T01:44:15.122Z,0.40
2023-02-21T01:47:15.343Z,0.43
2023-02-21T01:50:17.024Z,0.57
2023-02-21T01:53:18.219Z,0.38
2023-02-21T01:56:19.421Z,0.40
2023-02-21T01:59:21.206Z,0.47
2023-02-21T02:02:25.228Z,0.30
2023-02-21T02:05:28.458Z,0.40
2023-02-21T02:08:28.665Z,0.30
2023-02-21T02:11:32.946Z,0.50
2023-02-21T02:14:24.368Z,0.40
2023-02-21T02:17:12.568Z,0.40
2023-02-21T02:20:09.376Z,0.60
2023-02-21T02:23:13.942Z,0.40
2023-02-21T02:26:05.425Z,0.40
2023-02-21T02:28:54.264Z,0.50
2023-02-21T02:31:43.794Z,0.43
2023-02-21T02:34:46.999Z,0.50
2023-02-21T02:37:32.849Z,0.50
2023-02-21T02:40:21.078Z,0.40
2023-02-21T02:43:09.499Z,0.40
2023-02-21T02:45:54.505Z,0.50
2023-02-21T02:48:38.984Z,0.47
2023-02-21T02:51:23.522Z,0.50
2023-02-21T02:54:06.726Z,0.60
2023-02-21T02:56:49.590Z,0.47
2023-02-21T02:59:33.844Z,0.60
2023-02-21T03:02:30.581Z,0.80
2023-02-21T03:05:21.254Z,0.50
2023-02-21T03:08:09.859Z,0.60
2023-02-21T03:10:54.903Z,0.80
2023-02-21T03:13:41.458Z,1.00
2023-02-21T03:16:25.663Z,0.70
2023-02-21T03:19:09.690Z,0.80
2023-02-21T03:21:53.570Z,0.70
2023-02-21T03:24:39.180Z,0.80
2023-02-21T03:27:22.997Z,0.60
2023-02-21T03:30:29.493Z,0.82
2023-02-21T03:33:13.210Z,0.70
2023-02-21T03:35:55.997Z,0.80
2023-02-21T03:38:39.044Z,0.88
2023-02-21T03:41:23.150Z,0.77
2023-02-21T03:44:06.137Z,0.90
2023-02-21T03:46:49.043Z,0.80
2023-02-21T03:49:31.772Z,1.08
2023-02-21T03:52:14.954Z,1.10
2023-02-21T03:54:58.689Z,0.93
2023-02-21T03:57:43.207Z,1.00
2023-02-21T04:00:25.966Z,0.85
2023-02-21T04:03:10.942Z,1.00
2023-02-21T04:05:56.270Z,1.02
2023-02-21T04:08:39.397Z,1.10
2023-02-21T04:11:22.276Z,0.93
2023-02-21T04:14:08.082Z,1.17
2023-02-21T04:16:51.604Z,0.80
2023-02-21T04:19:34.385Z,0.80
2023-02-21T04:22:18.237Z,0.80
2023-02-21T04:25:01.465Z,0.90
2023-02-21T04:27:47.791Z,0.82
2023-02-21T04:30:32.173Z,1.20
2023-02-21T04:33:15.010Z,1.10
2023-02-21T04:35:57.729Z,1.02
2023-02-21T04:38:50.376Z,1.00
2023-02-21T04:41:33.136Z,1.05
2023-02-21T04:44:17.611Z,1.02
2023-02-21T04:47:02.097Z,1.00
2023-02-21T04:49:44.700Z,1.20
2023-02-21T04:52:27.316Z,1.20
2023-02-21T04:55:10.201Z,1.27
2023-02-21T04:57:52.759Z,1.23
2023-02-21T05:00:35.379Z,1.02
2023-02-21T05:03:19.337Z,1.27
2023-02-21T05:06:01.944Z,1.42
2023-02-21T05:08:44.495Z,1.40
2023-02-21T05:11:27.742Z,1.30
2023-02-21T05:14:10.853Z,1.17
2023-02-21T05:16:53.537Z,1.38
2023-02-21T05:19:37.507Z,1.08
2023-02-21T05:22:20.673Z,1.13
2023-02-21T05:25:03.321Z,1.55
2023-02-21T05:27:46.611Z,1.40
2023-02-21T05:30:29.447Z,1.20
2023-02-21T05:33:12.389Z,1.58
2023-02-21T05:35:56.858Z,1.13
2023-02-21T05:38:45.620Z,1.58
2023-02-21T05:41:28.234Z,1.50
2023-02-21T05:44:10.857Z,1.38
2023-02-21T05:46:53.443Z,1.60
2023-02-21T05:49:36.559Z,1.40
2023-02-21T05:52:20.560Z,1.70
2023-02-21T05:55:03.136Z,1.23
2023-02-21T05:57:46.120Z,1.70
2023-02-21T06:00:29.691Z,1.60
2023-02-21T06:03:12.336Z,1.58
2023-02-21T06:05:55.030Z,1.20
2023-02-21T06:08:44.694Z,0.90
2023-02-21T06:11:28.463Z,1.63
2023-02-21T06:14:14.950Z,1.40
2023-02-21T06:16:57.533Z,2.03
2023-02-21T06:19:40.143Z,1.63
2023-02-21T06:22:22.748Z,1.38
2023-02-21T06:25:07.314Z,1.70
2023-02-21T06:27:50.172Z,1.63
2023-02-21T06:30:32.820Z,1.92
2023-02-21T06:33:15.447Z,1.30
2023-02-21T06:35:58.272Z,1.48
2023-02-21T06:38:40.851Z,1.60
2023-02-21T06:41:25.920Z,1.48
2023-02-21T06:44:08.532Z,1.67
2023-02-21T06:46:51.520Z,1.63
2023-02-21T06:49:34.118Z,1.50
2023-02-21T06:52:16.738Z,1.42
2023-02-21T06:54:59.374Z,1.70
2023-02-21T06:57:43.321Z,1.65
2023-02-21T07:00:26.911Z,1.67
2023-02-21T07:03:09.536Z,1.80
2023-02-21T07:05:52.125Z,1.90
2023-02-21T07:08:34.725Z,2.00
2023-02-21T07:11:17.836Z,1.38
2023-02-21T07:14:01.888Z,1.60
2023-02-21T07:16:44.692Z,1.42
2023-02-21T07:19:27.322Z,1.42
2023-02-21T07:22:09.990Z,1.85
2023-02-21T07:24:52.839Z,1.27
2023-02-21T07:27:35.495Z,1.40
2023-02-21T07:30:19.659Z,1.70
2023-02-21T07:33:02.332Z,1.45
2023-02-21T07:35:46.374Z,1.88
2023-02-21T07:38:29.625Z,2.05
2023-02-21T07:41:12.882Z,2.15
2023-02-21T07:43:56.029Z,1.55
2023-02-21T07:46:42.856Z,1.63
2023-02-21T07:49:25.520Z,1.73
2023-02-21T07:52:08.732Z,1.75
2023-02-21T07:54:51.388Z,1.70
2023-02-21T07:57:34.092Z,1.73
2023-02-21T08:00:17.002Z,1.77
2023-02-21T08:03:01.290Z,2.17
2023-02-21T08:05:43.999Z,1.55
2023-02-21T08:08:27.340Z,1.85
2023-02-21T08:11:10.823Z,1.55
2023-02-21T08:13:55.141Z,1.98
2023-02-21T08:16:38.848Z,1.65
2023-02-21T08:19:23.544Z,1.80
2023-02-21T08:22:06.953Z,2.38
2023-02-21T08:24:50.673Z,2.00
2023-02-21T08:27:34.137Z,1.95
2023-02-21T08:30:18.709Z,1.70
2023-02-21T08:33:01.978Z,1.92
2023-02-21T08:35:46.795Z,2.20
2023-02-21T08:38:30.093Z,1.60
2023-02-21T08:41:14.006Z,2.05
2023-02-21T08:43:57.753Z,1.90
2023-02-21T08:46:41.148Z,1.73
2023-02-21T08:49:24.512Z,1.83
2023-02-21T08:52:09.447Z,1.88
2023-02-21T08:54:52.965Z,1.80
2023-02-21T08:57:35.830Z,1.50
2023-02-21T09:00:18.947Z,1.75
2023-02-21T09:03:01.590Z,1.92
2023-02-21T09:05:44.263Z,1.92
2023-02-21T09:08:30.899Z,2.00
2023-02-21T09:11:14.352Z,1.95
2023-02-21T09:13:57.168Z,1.50
2023-02-21T09:16:39.995Z,2.95
2023-02-21T09:19:22.818Z,1.83
2023-02-21T09:22:07.521Z,1.45
2023-02-21T09:24:51.587Z,1.80
2023-02-21T09:27:37.484Z,1.50
2023-02-21T09:30:21.727Z,2.03
2023-02-21T09:33:04.589Z,1.40
2023-02-21T09:35:47.379Z,2.08
2023-02-21T09:38:30.114Z,1.80
2023-02-21T09:41:15.623Z,1.40
2023-02-21T09:43:58.478Z,1.58
2023-02-21T09:46:42.271Z,1.88
2023-02-21T09:49:26.706Z,1.75
2023-02-21T09:52:17.060Z,1.88
2023-02-21T09:55:01.126Z,2.05
2023-02-21T09:57:45.114Z,1.92
2023-02-21T10:00:30.444Z,1.52
2023-02-21T10:03:24.490Z,1.95
2023-02-21T10:06:11.069Z,1.73
2023-02-21T10:08:55.559Z,1.83
2023-02-21T10:11:42.419Z,1.98
2023-02-21T10:14:31.285Z,1.30
2023-02-21T10:17:16.917Z,1.75
2023-02-21T10:20:02.321Z,2.13
2023-02-21T10:22:47.837Z,1.75
2023-02-21T10:25:31.902Z,1.67
2023-02-21T10:28:18.284Z,1.40
2023-02-21T10:31:06.038Z,1.98
2023-02-21T10:33:48.789Z,1.83
2023-02-21T10:36:31.577Z,1.90
2023-02-21T10:39:17.833Z,1.70
2023-02-21T10:42:01.099Z,2.25
2023-02-21T10:44:44.081Z,1.92
2023-02-21T10:47:32.282Z,1.63
2023-02-21T10:50:14.905Z,1.70
2023-02-21T10:52:57.677Z,1.70
2023-02-21T10:55:40.347Z,1.90
2023-02-21T10:58:27.451Z,1.85
2023-02-21T11:01:15.663Z,2.35
2023-02-21T11:04:00.888Z,2.40
2023-02-21T11:06:46.335Z,1.70
2023-02-21T11:09:33.997Z,2.03
2023-02-21T11:12:21.416Z,1.50
2023-02-21T11:15:06.146Z,1.60
2023-02-21T11:18:03.050Z,1.42
2023-02-21T11:20:47.698Z,1.65
2023-02-21T11:23:32.174Z,1.40
2023-02-21T11:26:15.706Z,2.00
2023-02-21T11:29:05.853Z,1.48
2023-02-21T11:31:48.802Z,1.35
2023-02-21T11:34:32.048Z,1.52
2023-02-21T11:37:16.815Z,1.40
2023-02-21T11:40:00.936Z,1.38
2023-02-21T11:42:43.506Z,1.58
2023-02-21T11:45:29.880Z,1.45
2023-02-21T11:48:14.593Z,1.30
2023-02-21T11:50:58.231Z,1.52
2023-02-21T11:53:43.459Z,1.40
2023-02-21T11:56:33.267Z,1.70
2023-02-21T11:59:30.400Z,1.40
2023-02-21T12:02:25.794Z,1.33
2023-02-21T12:05:15.524Z,1.10
2023-02-21T12:08:15.603Z,1.48
2023-02-21T12:11:04.607Z,1.15
2023-02-21T12:13:51.209Z,1.10
2023-02-21T12:16:38.246Z,1.38
2023-02-21T12:19:27.849Z,0.98
2023-02-21T12:22:17.728Z,1.25
2023-02-21T12:25:04.941Z,1.33
2023-02-21T12:27:56.460Z,1.20
2023-02-21T12:30:46.355Z,1.50
2023-02-21T12:33:35.322Z,1.15
2023-02-21T12:36:32.727Z,1.70
2023-02-21T12:39:22.438Z,1.25
2023-02-21T12:42:15.293Z,1.67
2023-02-21T12:45:03.626Z,1.30
2023-02-21T12:47:49.584Z,1.48
2023-02-21T12:50:34.745Z,1.33
2023-02-21T12:53:18.632Z,1.42
2023-02-21T12:56:04.884Z,1.13
2023-02-21T12:58:50.178Z,1.70
2023-02-21T13:01:36.596Z,1.40
2023-02-21T13:04:24.225Z,1.30
2023-02-21T13:07:11.089Z,1.40
2023-02-21T13:09:57.869Z,1.30
2023-02-21T13:12:45.179Z,1.38
2023-02-21T13:15:28.916Z,1.40
2023-02-21T13:18:24.487Z,1.35
2023-02-21T13:21:14.242Z,1.30
2023-02-21T13:23:59.983Z,1.25
2023-02-21T13:26:51.738Z,1.10
2023-02-21T13:29:37.432Z,1.20
2023-02-21T13:32:21.525Z,1.50
2023-02-21T13:35:08.524Z,1.30
2023-02-21T13:37:52.159Z,1.50
2023-02-21T13:40:37.222Z,1.10
2023-02-21T13:43:23.448Z,1.33
2023-02-21T13:46:23.747Z,1.65
2023-02-21T13:49:25.325Z,1.48
2023-02-21T13:52:17.623Z,1.17
2023-02-21T13:55:31.398Z,1.40
2023-02-21T13:58:33.985Z,1.60
2023-02-21T14:01:49.861Z,1.60
2023-02-21T14:04:54.419Z,1.40
2023-02-21T14:07:49.119Z,1.58
2023-02-21T14:10:34.137Z,1.27
2023-02-21T14:13:22.029Z,1.60
2023-02-21T14:16:10.570Z,1.75
2023-02-21T14:18:55.594Z,1.40
2023-02-21T14:21:41.039Z,1.50
2023-02-21T14:24:26.427Z,1.83
2023-02-21T14:27:23.939Z,1.50
2023-02-21T14:30:17.061Z,1.60
2023-02-21T14:33:03.310Z,1.40
2023-02-21T14:35:48.036Z,1.55
2023-02-21T14:38:33.146Z,1.50
2023-02-21T14:41:25.914Z,1.13
2023-02-21T14:44:19.013Z,1.42
2023-02-21T14:47:20.449Z,1.77
2023-02-21T14:50:10.582Z,1.40
2023-02-21T14:53:14.020Z,1.65
2023-02-21T14:56:02.952Z,1.20
2023-02-21T14:58:55.032Z,1.70
2023-02-21T15:01:44.340Z,1.63
2023-02-21T15:04:33.098Z,1.67
2023-02-21T15:07:21.326Z,1.20
2023-02-21T15:10:10.742Z,1.73
2023-02-21T15:12:53.846Z,1.35
2023-02-21T15:15:40.072Z,1.13
2023-02-21T15:18:25.115Z,1.30
2023-02-21T15:21:16.487Z,1.50
2023-02-21T15:24:03.550Z,1.17
2023-02-21T15:26:46.198Z,1.33
2023-02-21T15:29:28.797Z,1.25
2023-02-21T15:32:13.867Z,1.30
2023-02-21T15:34:56.701Z,1.30
2023-02-21T15:37:40.574Z,1.33
2023-02-21T15:40:23.982Z,1.63
2023-02-21T15:43:07.073Z,1.25
2023-02-21T15:45:53.061Z,1.30
2023-02-21T15:48:37.242Z,1.33
2023-02-21T15:51:20.108Z,0.90
2023-02-21T15:54:09.128Z,1.23
2023-02-21T15:57:01.261Z,1.27
2023-02-21T15:59:43.852Z,1.50
2023-02-21T16:02:26.701Z,1.20
2023-02-21T16:05:24.487Z,1.52
2023-02-21T16:08:07.113Z,1.52
2023-02-21T16:10:50.030Z,1.40
2023-02-21T16:13:36.317Z,1.13
2023-02-21T16:16:18.986Z,1.27
2023-02-21T16:19:01.675Z,1.35
2023-02-21T16:21:45.615Z,1.20
2023-02-21T16:24:29.839Z,1.30
2023-02-21T16:27:13.261Z,1.35
2023-02-21T16:29:55.897Z,1.33
2023-02-21T16:32:39.639Z,1.42
2023-02-21T16:35:23.414Z,1.50
2023-02-21T16:38:09.117Z,1.27
2023-02-21T16:40:51.733Z,1.27
2023-02-21T16:43:34.370Z,1.38
2023-02-21T16:46:17.764Z,1.38
2023-02-21T16:49:00.403Z,1.65
2023-02-21T16:51:43.683Z,1.20
2023-02-21T16:54:27.615Z,1.88
2023-02-21T16:57:10.972Z,1.63
2023-02-21T16:59:53.691Z,1.45
2023-02-21T17:02:36.462Z,1.50
2023-02-21T17:05:22.229Z,1.63
2023-02-21T17:08:05.217Z,1.88
2023-02-21T17:10:49.240Z,1.52
2023-02-21T17:13:31.843Z,1.23
2023-02-21T17:16:14.582Z,1.63
2023-02-21T17:18:57.227Z,1.65
2023-02-21T17:21:40.145Z,1.30
2023-02-21T17:24:22.790Z,1.35
2023-02-21T17:27:06.759Z,1.60
2023-02-21T17:29:49.555Z,1.67
2023-02-21T17:32:32.276Z,1.50
2023-02-21T17:35:15.357Z,1.58
2023-02-21T17:38:01.570Z,1.55
2023-02-21T17:40:46.419Z,1.33
2023-02-21T17:43:30.950Z,1.50
2023-02-21T17:46:14.040Z,1.33
2023-02-21T17:48:56.948Z,1.48
2023-02-21T17:51:39.562Z,1.20
2023-02-21T17:54:23.270Z,1.35
2023-02-21T17:57:06.763Z,1.20
2023-02-21T17:59:51.014Z,1.42
2023-02-21T18:02:33.713Z,1.42
2023-02-21T18:05:16.386Z,1.02
2023-02-21T18:07:59.062Z,1.30
2023-02-21T18:10:46.350Z,1.55
2023-02-21T18:13:28.969Z,1.63
2023-02-21T18:16:12.977Z,1.45
2023-02-21T18:18:55.586Z,1.30
2023-02-21T18:21:41.505Z,1.48
2023-02-21T18:24:25.519Z,1.33
2023-02-21T18:27:08.185Z,1.50
2023-02-21T18:29:54.415Z,1.58
2023-02-21T18:32:38.495Z,1.13
2023-02-21T18:35:21.160Z,1.27
2023-02-21T18:38:03.867Z,1.52
2023-02-21T18:40:47.100Z,1.83
2023-02-21T18:43:30.809Z,1.35
2023-02-21T18:46:14.321Z,1.38
2023-02-21T18:48:58.325Z,1.90
2023-02-21T18:51:41.017Z,1.67
2023-02-21T18:54:23.674Z,1.73
2023-02-21T18:57:06.352Z,1.60
2023-02-21T18:59:50.621Z,1.92
2023-02-21T19:02:34.419Z,1.52
2023-02-21T19:05:19.188Z,1.60
2023-02-21T19:08:01.863Z,1.50
2023-02-21T19:10:44.547Z,2.00
2023-02-21T19:13:27.234Z,1.65
2023-02-21T19:16:09.902Z,1.83
2023-02-21T19:18:54.432Z,2.03
2023-02-21T19:21:38.412Z,2.03
2023-02-21T19:24:21.054Z,2.22
2023-02-21T19:27:03.817Z,2.00
2023-02-21T19:29:47.313Z,2.35
2023-02-21T19:32:30.333Z,1.90
2023-02-21T19:35:14.404Z,2.10
2023-02-21T19:37:59.123Z,3.08
2023-02-21T19:40:41.930Z,2.25
2023-02-21T19:43:24.643Z,2.17
2023-02-21T19:46:07.393Z,2.10
2023-02-21T19:48:50.379Z,2.33
2023-02-21T19:51:34.107Z,2.00
2023-02-21T19:54:19.448Z,3.13
2023-02-21T19:57:02.204Z,2.97
2023-02-21T19:59:45.186Z,2.97
2023-02-21T20:02:28.141Z,3.00
2023-02-21T20:05:13.926Z,3.05
2023-02-21T20:07:56.678Z,3.58
2023-02-21T20:10:41.081Z,2.80
2023-02-21T20:13:24.162Z,3.20
2023-02-21T20:16:06.902Z,2.83
2023-02-21T20:18:51.832Z,3.38
2023-02-21T20:21:34.860Z,3.25
2023-02-21T20:24:17.561Z,3.10
2023-02-21T20:27:01.580Z,2.92
2023-02-21T20:29:44.304Z,3.40
2023-02-21T20:32:27.103Z,3.40
2023-02-21T20:35:10.268Z,3.10
2023-02-21T20:37:54.063Z,2.85
2023-02-21T20:40:36.951Z,3.72
2023-02-21T20:43:21.098Z,4.00
2023-02-21T20:46:04.130Z,3.75
2023-02-21T20:48:46.881Z,4.05
2023-02-21T20:51:30.442Z,4.30
2023-02-21T20:54:19.703Z,4.70
2023-02-21T20:57:02.496Z,4.50
2023-02-21T20:59:46.674Z,4.78
2023-02-21T21:02:29.356Z,5.35
2023-02-21T21:05:15.986Z,4.43
2023-02-21T21:07:58.757Z,5.35
2023-02-21T21:10:42.290Z,4.93
2023-02-21T21:13:25.007Z,4.95
2023-02-21T21:16:10.286Z,5.47
2023-02-21T21:18:52.946Z,5.65
2023-02-21T21:21:36.370Z,5.43
2023-02-21T21:24:19.147Z,5.22
2023-02-21T21:27:07.622Z,5.22
2023-02-21T21:29:53.630Z,5.30
2023-02-21T21:32:37.680Z,4.72
2023-02-21T21:35:20.850Z,4.97
2023-02-21T21:38:03.891Z,4.70
2023-02-21T21:40:47.787Z,4.20
2023-02-21T21:43:31.110Z,4.68
2023-02-21T21:46:15.128Z,4.85
2023-02-21T21:49:00.258Z,4.47
2023-02-21T21:51:42.926Z,3.97
2023-02-21T21:54:26.608Z,3.67
2023-02-21T21:57:09.418Z,3.90
2023-02-21T21:59:52.206Z,3.42
2023-02-21T22:02:34.825Z,3.67
2023-02-21T22:05:21.023Z,3.67
2023-02-21T22:08:03.840Z,3.50
2023-02-21T22:10:46.509Z,3.78
2023-02-21T22:13:30.134Z,3.42
2023-02-21T22:16:12.975Z,3.90
2023-02-21T22:18:55.629Z,3.50
2023-02-21T22:21:39.545Z,3.90
2023-02-21T22:24:23.389Z,4.30
2023-02-21T22:27:05.992Z,4.53
2023-02-21T22:29:49.420Z,4.13
2023-02-21T22:32:32.078Z,4.22
2023-02-21T22:35:19.021Z,4.25
2023-02-21T22:38:04.868Z,4.00
2023-02-21T22:40:47.960Z,4.15
2023-02-21T22:43:30.567Z,4.43
2023-02-21T22:46:13.172Z,3.97
2023-02-21T22:48:55.984Z,4.45
2023-02-21T22:51:38.859Z,5.85
2023-02-21T22:54:22.889Z,4.40
2023-02-21T22:57:07.162Z,4.07
2023-02-21T22:59:51.292Z,4.43
2023-02-21T23:02:36.103Z,4.90
2023-02-21T23:05:20.426Z,4.88
2023-02-21T23:08:03.005Z,3.97
2023-02-21T23:10:47.637Z,4.22
2023-02-21T23:13:30.546Z,4.10
2023-02-21T23:16:13.238Z,4.15
2023-02-21T23:18:55.956Z,4.47
2023-02-21T23:21:44.864Z,4.18
2023-02-21T23:24:28.478Z,4.85
2023-02-21T23:27:12.393Z,4.65
2023-02-21T23:29:54.990Z,4.35
2023-02-21T23:32:37.606Z,4.63
2023-02-21T23:35:20.198Z,4.63
2023-02-21T23:38:02.908Z,5.45
2023-02-21T23:40:46.011Z,4.75
2023-02-21T23:43:30.944Z,5.53
2023-02-21T23:46:17.939Z,5.10
2023-02-21T23:49:00.515Z,5.18
2023-02-21T23:51:43.476Z,4.80
2023-02-21T23:54:26.103Z,5.38
2023-02-21T23:57:08.712Z,5.20
2023-02-21T23:59:52.663Z,5.15
